createdAt,value
2019-02-07T00:04:39.736Z,13.90
2019-02-07T00:09:45.096Z,12.87
2019-02-07T00:14:50.667Z,13.23
2019-02-07T00:19:55.457Z,9.50
2019-02-07T00:25:00.748Z,12.90
2019-02-07T00:30:07.382Z,10.87
2019-02-07T00:35:13.432Z,11.17
2019-02-07T00:40:18.275Z,11.80
2019-02-07T00:45:24.937Z,9.60
2019-02-07T00:50:31.143Z,12.50
2019-02-07T00:55:37.436Z,11.37
2019-02-07T01:00:42.704Z,13.73
2019-02-07T01:05:48.319Z,14.63
2019-02-07T01:10:54.067Z,13.93
2019-02-07T01:16:00.187Z,14.90
2019-02-07T01:21:05.147Z,12.97
2019-02-07T01:26:11.544Z,10.57
2019-02-07T01:31:17.698Z,10.30
2019-02-07T01:36:24.035Z,14.30
2019-02-07T01:41:29.790Z,10.57
2019-02-07T01:46:35.691Z,10.93
2019-02-07T01:51:42.351Z,6.77
2019-02-07T01:56:47.843Z,15.07
2019-02-07T02:01:54.052Z,10.70
2019-02-07T02:07:00.243Z,11.80
2019-02-07T02:12:05.991Z,13.80
2019-02-07T02:17:13.503Z,8.00
2019-02-07T02:22:19.030Z,10.23
2019-02-07T02:27:24.236Z,7.23
2019-02-07T02:32:29.744Z,11.23
2019-02-07T02:37:35.280Z,15.50
2019-02-07T02:42:40.992Z,2.50
2019-02-07T02:47:46.511Z,15.37
2019-02-07T02:52:53.339Z,9.03
2019-02-07T02:57:59.086Z,5.57
2019-02-07T03:03:36.582Z,17.10
2019-02-07T03:09:01.858Z,9.17
2019-02-07T03:14:36.642Z,10.17
2019-02-07T03:20:00.692Z,15.30
2019-02-07T03:25:32.139Z,17.10
2019-02-07T03:30:58.925Z,13.23
2019-02-07T03:36:15.311Z,16.10
2019-02-07T03:41:38.283Z,7.17
2019-02-07T03:46:54.806Z,7.37
2019-02-07T03:52:31.239Z,16.47
2019-02-07T03:57:55.505Z,10.90
2019-02-07T04:03:11.413Z,11.33
2019-02-07T04:08:51.337Z,17.80
2019-02-07T04:14:07.815Z,17.47
2019-02-07T04:19:48.498Z,15.87
2019-02-07T04:25:13.880Z,14.40
2019-02-07T04:30:33.132Z,12.60
2019-02-07T04:35:55.611Z,22.13
2019-02-07T04:41:19.392Z,9.17
2019-02-07T04:46:47.551Z,13.87
2019-02-07T04:52:11.037Z,9.40
2019-02-07T04:57:33.646Z,6.63
2019-02-07T05:03:10.168Z,2.97
2019-02-07T05:08:52.940Z,13.63
2019-02-07T05:14:26.180Z,14.70
2019-02-07T05:19:49.447Z,12.37
2019-02-07T05:25:12.488Z,11.77
2019-02-07T05:30:39.451Z,7.03
2019-02-07T05:36:09.695Z,8.60
2019-02-07T05:41:39.930Z,13.57
2019-02-07T05:47:10.275Z,10.07
2019-02-07T05:52:26.280Z,8.57
2019-02-07T05:57:45.155Z,3.40
2019-02-07T06:03:03.830Z,10.97
2019-02-07T06:08:22.124Z,7.33
2019-02-07T06:13:36.877Z,8.63
2019-02-07T06:19:16.323Z,7.63
2019-02-07T06:24:40.046Z,3.23
2019-02-07T06:29:51.859Z,15.10
2019-02-07T06:35:21.929Z,6.20
2019-02-07T06:40:45.159Z,6.50
2019-02-07T06:46:09.410Z,10.27
2019-02-07T06:51:36.807Z,10.97
2019-02-07T06:57:00.110Z,10.07
2019-02-07T07:02:30.007Z,10.87
2019-02-07T07:08:12.551Z,6.83
2019-02-07T07:13:35.282Z,8.47
2019-02-07T07:18:58.142Z,11.87
2019-02-07T07:24:28.679Z,8.93
2019-02-07T07:30:01.949Z,11.40
2019-02-07T07:35:34.719Z,12.83
2019-02-07T07:41:02.014Z,9.93
2019-02-07T07:46:22.575Z,5.77
2019-02-07T07:52:02.236Z,11.00
2019-02-07T07:57:26.624Z,12.77
2019-02-07T08:02:57.370Z,9.63
2019-02-07T08:08:33.155Z,9.20
2019-02-07T08:13:52.563Z,12.67
2019-02-07T08:19:22.862Z,11.20
2019-02-07T08:24:52.165Z,13.50
2019-02-07T08:30:36.388Z,13.67
2019-02-07T08:36:04.192Z,14.63
2019-02-07T08:41:26.950Z,14.67
2019-02-07T08:47:00.134Z,16.17
2019-02-07T08:52:31.421Z,12.63
2019-02-07T08:57:49.132Z,10.97
2019-02-07T09:03:16.150Z,14.27
2019-02-07T09:08:39.341Z,12.93
2019-02-07T09:14:05.116Z,16.77
2019-02-07T09:19:28.228Z,16.30
2019-02-07T09:24:57.253Z,11.50
2019-02-07T09:30:20.484Z,18.37
2019-02-07T09:36:05.487Z,12.93
2019-02-07T09:41:25.716Z,15.50
2019-02-07T09:46:56.080Z,16.17
2019-02-07T09:52:20.458Z,16.90
2019-02-07T09:57:51.283Z,15.13
2019-02-07T10:03:27.633Z,9.33
2019-02-07T10:09:10.458Z,8.47
2019-02-07T10:14:43.782Z,14.73
2019-02-07T10:20:08.598Z,14.73
2019-02-07T10:25:31.950Z,10.67
2019-02-07T10:30:54.787Z,15.40
2019-02-07T10:36:20.363Z,15.60
2019-02-07T10:41:41.842Z,12.33
2019-02-07T10:47:07.881Z,17.30
2019-02-07T10:52:50.760Z,15.77
2019-02-07T10:58:14.049Z,11.67
2019-02-07T11:03:37.131Z,17.20
2019-02-07T11:09:02.189Z,16.03
2019-02-07T11:14:37.180Z,17.60
2019-02-07T11:20:01.435Z,15.70
2019-02-07T11:25:27.212Z,17.17
2019-02-07T11:30:54.255Z,19.03
2019-02-07T11:36:33.603Z,16.97
2019-02-07T11:42:15.987Z,18.97
2019-02-07T11:47:43.244Z,19.03
2019-02-07T11:53:01.163Z,18.73
2019-02-07T11:58:43.557Z,20.47
2019-02-07T12:04:02.626Z,16.17
2019-02-07T12:09:36.981Z,19.37
2019-02-07T12:14:54.786Z,18.50
2019-02-07T12:20:25.384Z,20.00
2019-02-07T12:25:48.218Z,15.73
2019-02-07T12:31:13.203Z,15.37
2019-02-07T12:36:29.534Z,17.47
2019-02-07T12:41:52.636Z,14.23
2019-02-07T12:47:15.655Z,16.40
2019-02-07T12:52:39.878Z,19.97
2019-02-07T12:58:02.996Z,17.37
2019-02-07T13:03:27.206Z,19.30
2019-02-07T13:08:47.887Z,17.37
2019-02-07T13:14:14.576Z,22.97
2019-02-07T13:19:50.487Z,21.47
2019-02-07T13:25:17.695Z,20.37
2019-02-07T13:30:45.108Z,17.90
2019-02-07T13:35:57.721Z,18.20
2019-02-07T13:41:21.871Z,16.27
2019-02-07T13:46:50.555Z,16.47
2019-02-07T13:52:17.350Z,17.83
2019-02-07T13:57:41.507Z,17.40
2019-02-07T14:03:07.451Z,16.77
2019-02-07T14:08:38.258Z,17.73
2019-02-07T14:13:55.285Z,13.93
2019-02-07T14:19:18.448Z,21.83
2019-02-07T14:24:41.640Z,19.13
2019-02-07T14:30:05.888Z,18.80
2019-02-07T14:35:30.717Z,16.97
2019-02-07T14:40:46.701Z,23.43
2019-02-07T14:46:13.948Z,20.70
2019-02-07T14:51:19.264Z,18.63
2019-02-07T14:56:24.895Z,22.90
2019-02-07T15:01:29.783Z,22.60
2019-02-07T15:06:34.947Z,18.23
2019-02-07T15:11:40.295Z,16.93
2019-02-07T15:16:45.674Z,18.00
2019-02-07T15:21:50.994Z,23.63
2019-02-07T15:26:56.503Z,20.90
2019-02-07T15:32:03.295Z,21.40
2019-02-07T15:37:08.869Z,21.47
2019-02-07T15:42:14.570Z,21.20
2019-02-07T15:47:19.939Z,21.80
2019-02-07T15:52:25.643Z,22.33
2019-02-07T15:57:31.199Z,25.37
2019-02-07T16:02:43.740Z,25.87
2019-02-07T16:07:49.068Z,24.40
2019-02-07T16:12:54.434Z,24.90
2019-02-07T16:17:59.254Z,36.67
2019-02-07T16:23:04.735Z,26.53
2019-02-07T16:28:10.456Z,26.47
2019-02-07T16:33:16.446Z,24.87
2019-02-07T16:38:22.064Z,25.57
2019-02-07T16:43:27.941Z,25.63
2019-02-07T16:48:32.723Z,27.13
2019-02-07T16:53:37.276Z,25.83
2019-02-07T16:58:41.978Z,28.97
2019-02-07T17:03:47.192Z,27.63
2019-02-07T17:08:52.763Z,25.00
2019-02-07T17:13:57.576Z,42.80
2019-02-07T17:19:02.915Z,30.33
2019-02-07T17:24:07.668Z,30.90
2019-02-07T17:29:16.489Z,35.03
2019-02-07T17:34:22.115Z,29.27
2019-02-07T17:39:28.333Z,30.07
2019-02-07T17:44:35.156Z,29.90
2019-02-07T17:49:41.522Z,30.07
2019-02-07T17:54:47.791Z,31.07
2019-02-07T17:59:54.112Z,31.43
2019-02-07T18:05:00.342Z,33.50
2019-02-07T18:10:09.021Z,30.07
2019-02-07T18:15:14.351Z,29.57
2019-02-07T18:20:21.195Z,35.37
2019-02-07T18:25:27.900Z,40.20
2019-02-07T18:30:33.653Z,36.93
2019-02-07T18:35:38.983Z,33.00
2019-02-07T18:40:44.282Z,32.30
2019-02-07T18:45:49.584Z,30.00
2019-02-07T18:50:54.895Z,27.53
2019-02-07T18:56:00.406Z,34.73
2019-02-07T19:01:05.819Z,30.93
2019-02-07T19:06:11.131Z,34.67
2019-02-07T19:11:16.442Z,36.37
2019-02-07T19:16:21.749Z,39.33
2019-02-07T19:21:27.105Z,41.63
2019-02-07T19:26:32.412Z,31.10
2019-02-07T19:31:37.722Z,36.60
2019-02-07T19:36:42.522Z,43.30
2019-02-07T19:41:47.806Z,37.93
2019-02-07T19:46:53.245Z,37.70
2019-02-07T19:52:07.996Z,30.60
2019-02-07T19:57:05.791Z,33.23
2019-02-07T20:02:11.164Z,34.27
2019-02-07T20:07:16.496Z,39.77
2019-02-07T20:12:21.818Z,38.33
2019-02-07T20:17:28.190Z,37.27
2019-02-07T20:22:33.563Z,40.77
2019-02-07T20:27:38.987Z,35.83
2019-02-07T20:32:44.390Z,37.73
2019-02-07T20:37:49.962Z,36.07
2019-02-07T20:42:55.415Z,36.07
2019-02-07T20:48:01.099Z,35.73
2019-02-07T20:53:08.152Z,40.53
2019-02-07T20:58:13.558Z,40.77
2019-02-07T21:03:18.943Z,40.87
2019-02-07T21:08:24.533Z,37.37
2019-02-07T21:13:29.898Z,39.87
2019-02-07T21:18:35.422Z,38.07
2019-02-07T21:23:40.843Z,38.77
2019-02-07T21:28:46.296Z,39.50
2019-02-07T21:33:51.842Z,33.37
2019-02-07T21:38:57.642Z,41.60
2019-02-07T21:44:03.430Z,37.17
2019-02-07T21:49:08.865Z,36.50
2019-02-07T21:54:14.859Z,38.33
2019-02-07T21:59:20.330Z,38.20
2019-02-07T22:04:26.383Z,36.30
2019-02-07T22:09:32.268Z,43.20
2019-02-07T22:14:38.882Z,40.17
2019-02-07T22:19:44.327Z,40.73
2019-02-07T22:24:50.087Z,38.30
2019-02-07T22:29:55.491Z,34.07
2019-02-07T22:35:01.186Z,37.10
2019-02-07T22:40:10.351Z,36.17
2019-02-07T22:45:16.523Z,35.07
2019-02-07T22:50:27.651Z,37.43
2019-02-07T22:55:32.990Z,38.03
2019-02-07T23:01:24.899Z,37.83
2019-02-07T23:06:30.585Z,41.13
2019-02-07T23:11:36.063Z,40.20
2019-02-07T23:16:41.665Z,39.50
2019-02-07T23:21:47.939Z,36.50
2019-02-07T23:26:53.362Z,40.23
2019-02-07T23:31:58.664Z,37.70
2019-02-07T23:37:04.322Z,37.70
2019-02-07T23:42:09.992Z,37.73
2019-02-07T23:47:15.938Z,37.50
2019-02-07T23:52:21.255Z,39.23
2019-02-07T23:57:26.866Z,37.87
